Time;durP1;ratioP1;P1;durP2;ratioP2;P2;SDS_P1;SDS_P2;PMS_P1;PMS_P2;Temp;Humidity;BMP_temperature;BMP_pressure;BME280_temperature;BME280_humidity;BME280_pressure;Samples;Min_cycle;Max_cycle;Signal;HPM_P1;HPM_P2
2023/07/09 00:02:04;;;;;;;5.53;3.65;;;;;;;21.83;47.12;99594.19;4380145;32;33050;-93
2023/07/09 00:04:33;;;;;;;6.55;3.28;;;;;;;21.82;47.35;99597.72;4393828;32;34809;-92
2023/07/09 00:07:03;;;;;;;7.70;3.50;;;;;;;21.81;47.25;99601.25;4402266;32;32754;-90
2023/07/09 00:09:31;;;;;;;7.57;3.47;;;;;;;21.75;47.29;99606.72;4377823;32;34035;-86
2023/07/09 00:11:59;;;;;;;8.45;4.03;;;;;;;21.79;47.56;99599.59;4391505;32;34319;-87
2023/07/09 00:14:26;;;;;;;6.18;3.15;;;;;;;21.80;47.38;99602.16;4391445;32;33581;-93
2023/07/09 00:16:54;;;;;;;7.90;3.08;;;;;;;21.73;47.58;99605.88;4377710;32;32955;-94
2023/07/09 00:19:24;;;;;;;8.68;4.32;;;;;;;21.73;47.37;99600.59;4391600;32;34488;-84
2023/07/09 00:21:53;;;;;;;7.68;3.37;;;;;;;21.80;47.29;99598.66;4390311;32;34988;-94
2023/07/09 00:24:21;;;;;;;7.10;4.03;;;;;;;21.72;47.68;99604.16;4390175;32;33839;-90
2023/07/09 00:26:49;;;;;;;6.00;3.40;;;;;;;21.75;47.39;99605.84;4389788;32;32630;-84
2023/07/09 00:29:18;;;;;;;7.40;3.95;;;;;;;21.73;47.48;99600.59;4389735;32;33960;-91
2023/07/09 00:31:46;;;;;;;5.55;3.37;;;;;;;21.69;47.52;99598.94;4389238;32;35229;-89
2023/07/09 00:34:17;;;;;;;7.65;3.35;;;;;;;21.70;47.24;99600.66;4389023;32;33944;-84
2023/07/09 00:36:46;;;;;;;7.40;3.78;;;;;;;21.74;47.33;99593.53;4388999;32;33187;-86
2023/07/09 00:39:19;;;;;;;6.55;3.40;;;;;;;21.78;47.50;99597.81;4388126;32;33904;-85
2023/07/09 00:41:48;;;;;;;6.28;3.60;;;;;;;21.84;47.39;99595.91;4390115;32;35018;-91
2023/07/09 00:44:21;;;;;;;7.80;3.70;;;;;;;21.83;47.22;99606.50;4389481;32;33884;-86
2023/07/09 00:46:49;;;;;;;9.38;3.50;;;;;;;22.01;46.76;99599.84;4391140;32;33286;-88
2023/07/09 00:49:29;;;;;;;8.43;3.40;;;;;;;21.70;47.48;99602.44;4391156;32;34078;-84
2023/07/09 00:52:01;;;;;;;7.25;3.50;;;;;;;21.73;47.45;99595.31;4398403;32;35111;-88
2023/07/09 00:54:36;;;;;;;7.15;3.60;;;;;;;21.66;47.83;99596.37;4400734;32;34082;-84
2023/07/09 00:57:17;;;;;;;9.00;3.60;;;;;;;21.66;47.50;99595.50;4402147;32;32985;-90
2023/07/09 00:59:57;;;;;;;8.57;3.45;;;;;;;21.62;47.30;99594.72;4390938;32;35326;-85
2023/07/09 01:02:25;;;;;;;7.05;3.67;;;;;;;21.59;47.30;99595.69;4389677;32;34384;-86
2023/07/09 01:04:56;;;;;;;8.00;3.37;;;;;;;21.57;47.32;99591.34;4389419;32;33628;-87
2023/07/09 01:07:24;;;;;;;6.45;3.08;;;;;;;21.50;47.47;99595.91;4390876;32;33698;-88
2023/07/09 01:09:53;;;;;;;6.20;3.62;;;;;;;21.46;47.74;99594.25;4388764;32;32786;-90
2023/07/09 01:12:22;;;;;;;11.30;4.22;;;;;;;21.62;47.31;99592.94;4389647;32;34305;-86
2023/07/09 01:14:52;;;;;;;6.35;3.45;;;;;;;21.53;47.60;99595.81;4402336;32;34292;-93
2023/07/09 01:17:20;;;;;;;5.25;3.33;;;;;;;21.41;47.91;99596.13;4391900;32;32983;-85
2023/07/09 01:19:50;;;;;;;7.82;4.05;;;;;;;21.41;47.84;99590.88;4390272;32;34029;-94
2023/07/09 01:22:20;;;;;;;6.40;3.58;;;;;;;21.48;47.57;99591.56;4376973;32;33888;-95
2023/07/09 01:25:03;;;;;;;6.68;3.35;;;;;;;21.54;47.19;99591.41;4388246;32;33649;-92
2023/07/09 01:27:41;;;;;;;7.97;3.97;;;;;;;21.39;47.40;99587.38;4390703;32;33983;-87
2023/07/09 01:30:14;;;;;;;6.97;3.62;;;;;;;21.41;47.32;99587.38;4401954;32;33566;-90
2023/07/09 01:32:45;;;;;;;5.65;3.12;;;;;;;21.33;47.83;99584.91;4378479;32;33742;-91
2023/07/09 01:35:17;;;;;;;6.05;3.50;;;;;;;21.41;47.54;99595.28;4388903;32;34815;-90
2023/07/09 01:37:44;;;;;;;5.62;3.30;;;;;;;21.40;47.91;99597.03;4400322;32;33758;-85
2023/07/09 01:40:15;;;;;;;6.90;3.30;;;;;;;21.24;48.44;99595.63;4389607;32;33769;-87
2023/07/09 01:42:57;;;;;;;6.68;3.67;;;;;;;21.27;48.06;99585.88;4389731;32;34311;-87
2023/07/09 01:45:28;;;;;;;6.82;3.12;;;;;;;21.28;47.92;99595.50;4388422;32;34455;-86
2023/07/09 01:47:56;;;;;;;6.87;3.03;;;;;;;21.41;47.57;99601.41;4388407;32;33453;-87
2023/07/09 01:50:24;;;;;;;7.05;3.95;;;;;;;21.33;47.51;99598.97;4400771;32;34760;-88
2023/07/09 01:52:53;;;;;;;8.88;3.60;;;;;;;21.29;47.62;99604.28;4388436;32;34066;-88
2023/07/09 01:55:24;;;;;;;7.85;3.30;;;;;;;21.27;47.65;99596.44;4388021;32;34796;-86
2023/07/09 01:57:52;;;;;;;7.47;3.22;;;;;;;21.22;47.93;99611.50;4401237;32;33553;-86
2023/07/09 02:00:20;;;;;;;8.18;3.62;;;;;;;21.33;47.50;99606.00;4400056;32;34703;-86
2023/07/09 02:02:48;;;;;;;7.62;3.80;;;;;;;21.25;47.76;99602.63;4388380;32;33448;-89
2023/07/09 02:05:18;;;;;;;6.45;3.53;;;;;;;21.17;48.20;99608.09;4387128;32;34134;-90
2023/07/09 02:07:46;;;;;;;6.22;3.37;;;;;;;21.35;47.70;99612.97;4388957;32;34275;-83
2023/07/09 02:10:16;;;;;;;5.32;3.22;;;;;;;21.20;47.94;99613.28;4387719;32;34638;-85
2023/07/09 02:12:43;;;;;;;7.40;3.78;;;;;;;21.18;47.80;99609.84;4389700;32;36832;-86
2023/07/09 02:15:11;;;;;;;7.00;3.70;;;;;;;21.27;47.83;99612.25;4389968;32;34071;-85
2023/07/09 02:17:39;;;;;;;6.15;3.12;;;;;;;21.42;47.85;99618.09;4388639;32;33330;-86
2023/07/09 02:20:08;;;;;;;6.93;3.70;;;;;;;21.18;48.54;99622.16;4388721;32;33809;-85
2023/07/09 02:22:37;;;;;;;8.77;3.87;;;;;;;21.05;48.86;99617.16;4389120;32;34027;-86
2023/07/09 02:25:05;;;;;;;8.10;3.95;;;;;;;21.02;48.67;99619.84;4390194;32;33798;-86
2023/07/09 02:27:33;;;;;;;8.10;3.95;;;;;;;21.07;48.19;99620.63;4391860;32;33286;-85
2023/07/09 02:30:01;;;;;;;9.75;4.32;;;;;;;21.14;48.03;99619.59;4373180;32;34332;-87
2023/07/09 02:32:29;;;;;;;7.87;3.70;;;;;;;21.03;48.10;99621.59;4390482;32;33248;-84
2023/07/09 02:34:56;;;;;;;6.72;3.40;;;;;;;21.01;48.20;99622.53;4390446;32;33923;-85
2023/07/09 02:37:25;;;;;;;7.28;3.60;;;;;;;21.07;48.04;99630.31;4389196;32;33214;-86
2023/07/09 02:39:53;;;;;;;5.50;3.30;;;;;;;20.98;48.17;99619.97;4389983;32;33644;-87
2023/07/09 02:42:22;;;;;;;5.80;3.47;;;;;;;20.89;48.01;99621.91;4391790;32;34188;-86
2023/07/09 02:44:50;;;;;;;6.60;3.75;;;;;;;20.85;48.24;99616.75;4390639;32;33620;-86
2023/07/09 02:47:18;;;;;;;6.72;3.10;;;;;;;20.90;48.37;99621.00;4377059;32;33490;-86
2023/07/09 02:49:47;;;;;;;6.05;3.80;;;;;;;20.98;48.22;99617.31;4389052;32;34148;-86
2023/07/09 02:52:15;;;;;;;6.10;3.60;;;;;;;20.87;48.38;99620.19;4379033;32;34885;-87
2023/07/09 02:54:42;;;;;;;7.80;4.05;;;;;;;20.84;48.53;99620.28;4389430;32;34692;-86
2023/07/09 02:57:11;;;;;;;5.57;3.33;;;;;;;20.80;48.60;99624.75;4390251;32;34277;-86
2023/07/09 02:59:39;;;;;;;7.40;3.92;;;;;;;20.72;49.04;99626.69;4390946;32;33910;-86
2023/07/09 03:02:06;;;;;;;7.70;3.67;;;;;;;20.68;49.07;99619.72;4390952;32;34121;-87
2023/07/09 03:04:34;;;;;;;7.37;3.65;;;;;;;20.68;49.52;99632.03;4389982;32;34538;-86
2023/07/09 03:07:02;;;;;;;6.72;3.83;;;;;;;20.64;49.30;99634.72;4390005;32;33441;-85
2023/07/09 03:09:29;;;;;;;7.37;3.67;;;;;;;20.68;49.19;99625.00;4390304;32;34722;-87
2023/07/09 03:11:57;;;;;;;5.70;3.50;;;;;;;20.71;49.13;99630.19;4387739;32;34829;-87
2023/07/09 03:14:24;;;;;;;6.82;3.62;;;;;;;20.78;48.91;99631.81;4390019;32;34212;-87
2023/07/09 03:16:52;;;;;;;8.48;3.97;;;;;;;20.80;48.54;99634.44;4388948;32;34148;-87
2023/07/09 03:19:21;;;;;;;5.78;3.60;;;;;;;20.71;48.74;99639.88;4391216;32;33954;-88
2023/07/09 03:21:50;;;;;;;6.80;3.78;;;;;;;20.77;48.47;99635.34;4389996;32;35086;-88
2023/07/09 03:24:21;;;;;;;5.93;3.10;;;;;;;20.84;48.45;99636.09;4384610;32;33908;-87
2023/07/09 03:26:48;;;;;;;9.65;3.67;;;;;;;20.75;48.51;99637.13;4390539;32;34182;-87
2023/07/09 03:29:15;;;;;;;8.43;3.70;;;;;;;20.81;48.52;99642.28;4390761;32;35193;-87
2023/07/09 03:31:43;;;;;;;6.20;3.65;;;;;;;20.85;48.64;99643.97;4390193;32;33461;-86
2023/07/09 03:34:11;;;;;;;5.65;2.95;;;;;;;20.83;48.86;99640.47;4388090;32;34903;-85
2023/07/09 03:36:38;;;;;;;7.70;3.87;;;;;;;20.83;48.98;99644.88;4390574;32;33176;-86
2023/07/09 03:39:07;;;;;;;6.82;3.60;;;;;;;20.92;48.93;99649.09;4401897;32;33629;-86
2023/07/09 03:41:34;;;;;;;6.78;3.25;;;;;;;20.96;48.81;99645.50;4377295;32;33386;-85
2023/07/09 03:44:02;;;;;;;8.57;3.50;;;;;;;21.07;48.96;99644.34;4391352;32;33472;-85
2023/07/09 03:46:30;;;;;;;7.03;3.50;;;;;;;21.10;48.92;99646.03;4389636;32;33118;-89
2023/07/09 03:48:59;;;;;;;5.97;3.45;;;;;;;21.11;49.09;99639.88;4376545;32;33043;-84
2023/07/09 03:51:26;;;;;;;8.23;3.65;;;;;;;21.03;49.37;99640.06;4376192;32;33651;-84
2023/07/09 03:53:54;;;;;;;6.43;3.65;;;;;;;21.11;49.46;99639.88;4390616;32;33909;-90
2023/07/09 03:56:22;;;;;;;5.57;2.90;;;;;;;21.08;49.84;99642.59;4389957;32;33796;-85
2023/07/09 03:58:49;;;;;;;6.30;3.65;;;;;;;21.08;49.93;99645.22;4377092;32;32129;-83
2023/07/09 04:01:17;;;;;;;7.40;4.00;;;;;;;21.14;50.02;99639.81;4389837;32;34048;-84
2023/07/09 04:03:45;;;;;;;8.10;3.83;;;;;;;21.27;49.99;99640.41;4391257;32;33700;-86
2023/07/09 04:06:12;;;;;;;7.20;3.72;;;;;;;21.52;49.33;99641.59;4391142;32;33435;-84
2023/07/09 04:08:40;;;;;;;7.55;3.60;;;;;;;21.55;49.71;99640.63;4391003;32;34790;-83
2023/07/09 04:11:08;;;;;;;7.53;4.00;;;;;;;21.61;49.96;99640.50;4377530;32;33871;-84
2023/07/09 04:13:36;;;;;;;5.60;3.33;;;;;;;21.71;49.68;99641.13;4387175;32;33420;-91
2023/07/09 04:16:04;;;;;;;6.22;3.65;;;;;;;21.98;49.17;99647.47;4390663;32;33921;-84
2023/07/09 04:18:33;;;;;;;7.43;3.75;;;;;;;22.16;48.87;99644.41;4390787;32;34677;-85
2023/07/09 04:21:00;;;;;;;6.00;3.45;;;;;;;22.17;49.04;99648.75;4389954;32;33697;-91
2023/07/09 04:23:28;;;;;;;7.62;3.78;;;;;;;22.21;49.20;99645.13;4389828;32;33424;-87
2023/07/09 04:25:55;;;;;;;5.80;3.33;;;;;;;22.21;49.92;99642.47;4391170;32;33620;-86
2023/07/09 04:28:23;;;;;;;6.68;3.97;;;;;;;22.29;49.47;99640.50;4390585;32;34213;-86
2023/07/09 04:30:51;;;;;;;7.87;3.80;;;;;;;22.46;49.04;99636.50;4401184;32;34163;-86
2023/07/09 04:33:20;;;;;;;6.37;3.45;;;;;;;22.57;48.67;99635.28;4388319;32;33636;-87
2023/07/09 04:35:49;;;;;;;7.37;3.42;;;;;;;23.03;47.98;99643.66;4391181;32;34365;-88
2023/07/09 04:38:17;;;;;;;6.93;3.83;;;;;;;23.53;47.15;99633.28;4388515;32;33587;-88
2023/07/09 04:40:46;;;;;;;7.43;3.37;;;;;;;24.00;46.02;99638.78;4376677;32;33384;-88
2023/07/09 04:43:14;;;;;;;6.50;3.75;;;;;;;24.35;45.47;99636.66;4390100;32;34021;-88
2023/07/09 04:45:41;;;;;;;8.30;3.35;;;;;;;24.70;44.94;99630.97;4389180;32;33719;-88
2023/07/09 04:48:09;;;;;;;6.00;3.45;;;;;;;25.00;44.36;99636.00;4375021;32;33169;-92
2023/07/09 04:50:37;;;;;;;6.00;3.70;;;;;;;25.33;43.49;99640.97;4389576;32;34170;-89
2023/07/09 04:53:04;;;;;;;7.18;3.00;;;;;;;25.40;42.99;99640.66;4389348;32;34797;-87
2023/07/09 04:55:33;;;;;;;8.73;3.30;;;;;;;25.40;42.81;99642.44;4389595;32;33145;-86
2023/07/09 04:58:00;;;;;;;6.90;3.53;;;;;;;25.76;42.28;99640.06;4389174;32;32733;-85
2023/07/09 05:00:28;;;;;;;6.43;3.05;;;;;;;26.27;41.94;99651.22;4389521;32;34086;-87
2023/07/09 05:02:55;;;;;;;8.43;4.00;;;;;;;26.51;41.55;99643.97;4389292;32;33594;-86
2023/07/09 05:05:23;;;;;;;7.57;3.67;;;;;;;26.58;41.15;99640.09;4389437;32;34129;-87
2023/07/09 05:07:50;;;;;;;7.18;3.50;;;;;;;26.82;41.01;99638.09;4390647;32;33901;-87
2023/07/09 05:10:20;;;;;;;7.65;3.40;;;;;;;26.70;41.30;99644.84;4385899;32;34271;-86
2023/07/09 05:12:52;;;;;;;5.80;2.90;;;;;;;26.67;41.31;99642.34;4401193;32;34605;-86
2023/07/09 05:15:21;;;;;;;7.10;3.15;;;;;;;27.11;40.74;99642.94;4388419;32;33978;-86
2023/07/09 05:17:49;;;;;;;9.15;3.03;;;;;;;27.17;40.25;99645.34;4387130;32;34264;-86
2023/07/09 05:20:16;;;;;;;7.03;3.80;;;;;;;27.30;40.14;99644.72;4388687;32;34594;-87
2023/07/09 05:22:44;;;;;;;5.87;3.30;;;;;;;27.26;40.48;99643.16;4387559;32;34049;-87
2023/07/09 05:25:12;;;;;;;5.70;2.87;;;;;;;27.44;40.47;99642.25;4388414;32;34165;-85
2023/07/09 05:27:39;;;;;;;6.50;2.90;;;;;;;27.81;40.11;99648.47;4389015;32;33823;-85
2023/07/09 05:30:07;;;;;;;6.45;2.85;;;;;;;27.93;39.43;99649.66;4390966;32;34249;-87
2023/07/09 05:32:36;;;;;;;8.27;3.12;;;;;;;27.91;39.10;99646.19;4388515;32;33512;-86
2023/07/09 05:35:04;;;;;;;6.65;3.20;;;;;;;28.08;39.28;99649.72;4387898;32;33524;-89
2023/07/09 05:37:32;;;;;;;5.75;3.08;;;;;;;28.23;38.98;99647.22;4389600;32;34853;-90
2023/07/09 05:40:00;;;;;;;6.20;3.37;;;;;;;28.37;38.98;99650.03;4387824;32;34602;-87
2023/07/09 05:42:27;;;;;;;8.60;3.33;;;;;;;28.43;39.01;99649.72;4389862;32;34488;-90
2023/07/09 05:44:55;;;;;;;6.18;3.00;;;;;;;28.36;38.50;99653.59;4389696;32;33570;-86
2023/07/09 05:47:23;;;;;;;6.20;3.12;;;;;;;28.59;38.95;99655.06;4388879;32;33470;-88
2023/07/09 05:49:50;;;;;;;7.53;2.87;;;;;;;28.56;39.22;99648.13;4389183;32;33839;-90
2023/07/09 05:52:21;;;;;;;6.30;2.80;;;;;;;28.85;39.14;99648.34;4388905;32;34550;-86
2023/07/09 05:54:50;;;;;;;6.18;3.17;;;;;;;28.95;38.98;99644.22;4387066;32;34390;-86
2023/07/09 05:57:17;;;;;;;6.60;2.90;;;;;;;29.09;38.90;99651.47;4387134;32;33719;-86
2023/07/09 05:59:45;;;;;;;5.03;2.67;;;;;;;29.20;38.46;99651.72;4389853;32;34163;-85
2023/07/09 06:02:14;;;;;;;6.05;3.00;;;;;;;29.26;38.61;99666.56;4389388;32;33937;-88
2023/07/09 06:04:42;;;;;;;4.80;2.42;;;;;;;29.05;38.46;99658.78;4374518;32;33643;-85
2023/07/09 06:07:10;;;;;;;7.03;3.03;;;;;;;29.20;37.91;99657.06;4390038;32;34786;-87
2023/07/09 06:09:37;;;;;;;5.62;3.05;;;;;;;29.31;35.63;99656.47;4387293;32;33893;-85
2023/07/09 06:12:06;;;;;;;5.57;2.85;;;;;;;28.75;34.92;99653.31;4376277;32;34155;-93
2023/07/09 06:14:35;;;;;;;7.95;3.00;;;;;;;28.80;36.40;99653.06;4389204;32;32722;-88
2023/07/09 06:17:02;;;;;;;5.87;2.67;;;;;;;29.40;34.13;99655.97;4375279;32;33999;-86
2023/07/09 06:19:30;;;;;;;6.20;2.58;;;;;;;29.11;34.85;99656.75;4388762;32;34328;-91
2023/07/09 06:21:58;;;;;;;5.43;2.92;;;;;;;29.56;34.95;99659.47;4389140;32;34428;-87
2023/07/09 06:24:25;;;;;;;5.87;2.53;;;;;;;30.05;35.24;99659.31;4389466;32;33573;-87
2023/07/09 06:26:53;;;;;;;7.72;2.97;;;;;;;29.73;36.01;99663.00;4390007;32;33859;-85
2023/07/09 06:29:20;;;;;;;4.47;2.25;;;;;;;29.90;35.07;99664.69;4390394;32;35503;-85
2023/07/09 06:31:48;;;;;;;5.75;2.92;;;;;;;29.32;34.83;99668.88;4392862;32;33670;-95
2023/07/09 06:34:16;;;;;;;4.97;2.42;;;;;;;29.51;36.43;99666.91;4390045;32;33498;-92
2023/07/09 06:36:43;;;;;;;6.97;2.97;;;;;;;29.51;35.72;99669.56;4398627;32;33949;-84
2023/07/09 06:39:11;;;;;;;6.03;2.62;;;;;;;29.29;34.38;99666.41;4388558;32;35204;-86
2023/07/09 06:41:38;;;;;;;7.35;2.85;;;;;;;29.75;34.67;99666.47;4388383;32;34159;-85
2023/07/09 06:44:07;;;;;;;6.55;2.95;;;;;;;30.30;34.76;99665.87;4381184;32;33318;-85
2023/07/09 06:46:36;;;;;;;7.20;3.00;;;;;;;30.24;33.87;99664.44;4376977;32;33180;-96
2023/07/09 06:49:06;;;;;;;6.20;3.30;;;;;;;30.31;32.59;99651.56;4389700;32;34952;-83
2023/07/09 06:51:34;;;;;;;6.55;2.40;;;;;;;30.15;32.91;99658.72;4402196;32;34029;-93
2023/07/09 06:54:02;;;;;;;6.25;3.08;;;;;;;30.64;33.85;99658.44;4390351;32;34754;-86
2023/07/09 06:56:31;;;;;;;6.53;2.58;;;;;;;30.63;31.92;99654.91;4392280;32;34846;-86
2023/07/09 06:58:58;;;;;;;7.93;2.40;;;;;;;30.17;31.51;99655.06;4389469;32;33331;-96
2023/07/09 07:01:26;;;;;;;6.85;3.10;;;;;;;30.58;31.30;99664.19;4388429;32;34427;-87
2023/07/09 07:03:54;;;;;;;5.12;2.65;;;;;;;30.68;29.85;99662.66;4388960;32;33444;-87
2023/07/09 07:06:21;;;;;;;6.95;2.72;;;;;;;30.41;30.19;99658.03;4388306;32;33930;-84
2023/07/09 07:08:49;;;;;;;7.55;3.00;;;;;;;30.42;29.24;99654.44;4390290;32;34980;-85
2023/07/09 07:11:17;;;;;;;6.07;2.50;;;;;;;30.85;31.26;99658.97;4391019;32;34669;-86
2023/07/09 07:13:46;;;;;;;6.82;2.97;;;;;;;31.00;30.39;99655.31;4388241;32;33282;-88
2023/07/09 07:16:13;;;;;;;5.53;2.72;;;;;;;30.89;30.00;99661.34;4388150;32;32485;-85
2023/07/09 07:18:41;;;;;;;5.53;2.95;;;;;;;31.16;29.08;99657.84;4376698;32;34515;-85
2023/07/09 07:21:09;;;;;;;8.80;2.80;;;;;;;30.69;28.39;99656.34;4386358;32;34255;-85
2023/07/09 07:23:36;;;;;;;8.13;2.95;;;;;;;31.08;28.00;99654.81;4390659;32;34427;-87
2023/07/09 07:26:04;;;;;;;5.85;2.67;;;;;;;30.65;29.72;99655.69;4391214;32;33663;-86
2023/07/09 07:28:34;;;;;;;5.90;2.97;;;;;;;30.35;30.26;99665.59;4391001;32;34854;-85
2023/07/09 07:31:07;;;;;;;5.18;2.50;;;;;;;30.86;28.84;99656.16;4401329;32;34069;-85
2023/07/09 07:33:38;;;;;;;7.43;2.67;;;;;;;31.15;30.69;99658.81;4390138;32;34089;-85
2023/07/09 07:36:06;;;;;;;6.62;2.70;;;;;;;30.78;28.96;99656.66;4401395;32;33719;-85
2023/07/09 07:38:53;;;;;;;5.95;2.90;;;;;;;30.02;29.67;99651.47;4388329;32;34910;-87
2023/07/09 07:41:21;;;;;;;7.12;2.83;;;;;;;30.66;31.34;99660.06;4384704;32;33803;-88
2023/07/09 07:43:48;;;;;;;6.35;2.97;;;;;;;29.87;30.67;99656.84;4377915;32;34410;-86
2023/07/09 07:46:16;;;;;;;5.53;2.55;;;;;;;30.64;29.62;99658.44;4391411;32;34655;-89
2023/07/09 07:48:43;;;;;;;7.20;2.80;;;;;;;30.33;30.00;99649.63;4387616;32;34879;-91
2023/07/09 07:51:11;;;;;;;6.93;2.55;;;;;;;30.51;29.44;99647.66;4389031;32;33685;-88
2023/07/09 07:53:39;;;;;;;5.68;2.45;;;;;;;30.14;30.71;99665.03;4390554;32;34137;-86
2023/07/09 07:56:07;;;;;;;7.57;3.75;;;;;;;30.33;30.84;99664.81;4377689;32;33918;-86
2023/07/09 07:58:34;;;;;;;6.93;2.95;;;;;;;30.78;31.45;99659.34;4389399;32;34157;-88
2023/07/09 08:01:02;;;;;;;7.53;2.75;;;;;;;30.66;31.88;99656.53;4389632;32;33944;-86
2023/07/09 08:03:30;;;;;;;7.75;3.10;;;;;;;29.69;30.89;99658.78;4408459;32;34743;-87
2023/07/09 08:05:58;;;;;;;6.93;3.05;;;;;;;30.40;29.36;99656.34;4393505;32;34491;-86
2023/07/09 08:08:29;;;;;;;6.72;2.70;;;;;;;30.51;29.09;99653.84;4401005;32;34806;-87
2023/07/09 08:11:07;;;;;;;6.00;2.65;;;;;;;30.92;28.81;99652.25;4388696;32;34672;-87
2023/07/09 08:13:36;;;;;;;6.68;3.20;;;;;;;30.97;30.50;99650.13;4388401;32;33973;-83
2023/07/09 08:16:05;;;;;;;7.47;3.62;;;;;;;30.88;28.93;99645.38;4388288;32;34033;-83
2023/07/09 08:18:33;;;;;;;6.68;3.15;;;;;;;30.61;30.86;99648.81;4390212;32;34318;-92
2023/07/09 08:21:01;;;;;;;6.18;3.22;;;;;;;30.66;30.83;99649.38;4389804;32;34032;-82
2023/07/09 08:23:29;;;;;;;7.43;3.08;;;;;;;31.01;27.93;99641.81;4402171;32;33093;-81
2023/07/09 08:25:58;;;;;;;6.25;3.10;;;;;;;31.07;29.04;99645.06;4391105;32;33527;-81
2023/07/09 08:28:26;;;;;;;5.03;2.70;;;;;;;31.35;29.74;99652.19;4377342;32;34896;-84
2023/07/09 08:30:54;;;;;;;6.55;2.80;;;;;;;31.31;29.03;99648.84;4389577;32;33674;-93
2023/07/09 08:33:22;;;;;;;6.95;2.87;;;;;;;31.09;29.72;99652.03;4390867;32;32537;-82
2023/07/09 08:35:51;;;;;;;7.28;3.10;;;;;;;31.06;30.26;99648.69;4397323;32;32640;-87
2023/07/09 08:38:20;;;;;;;5.32;2.83;;;;;;;30.57;27.65;99649.91;4397946;32;34253;-81
2023/07/09 08:40:55;;;;;;;11.15;2.90;;;;;;;30.85;28.24;99651.78;4409975;32;33502;-95
2023/07/09 08:44:10;;;;;;;7.15;3.17;;;;;;;31.28;29.80;99643.66;4376559;32;33354;-84
2023/07/09 08:46:52;;;;;;;6.07;2.70;;;;;;;31.32;29.36;99645.22;4342486;32;33888;-91
2023/07/09 08:49:30;;;;;;;10.13;3.28;;;;;;;31.61;28.51;99653.16;4390512;32;33836;-83
2023/07/09 08:51:58;;;;;;;5.25;2.75;;;;;;;31.09;29.81;99644.00;4390274;32;32541;-91
2023/07/09 08:54:34;;;;;;;5.50;2.50;;;;;;;30.93;31.12;99641.44;4375764;32;32708;-86
2023/07/09 08:57:17;;;;;;;12.77;3.10;;;;;;;31.16;29.02;99644.47;4399529;32;33944;-88
2023/07/09 08:59:46;;;;;;;5.70;2.60;;;;;;;31.77;27.67;99640.44;4389293;32;34178;-91
2023/07/09 09:02:27;;;;;;;6.97;3.33;;;;;;;31.48;28.89;99645.06;4390118;32;33905;-81
2023/07/09 09:04:55;;;;;;;5.87;2.72;;;;;;;31.28;28.14;99638.31;4401159;32;33381;-81
2023/07/09 09:07:25;;;;;;;6.25;2.40;;;;;;;31.34;28.36;99647.81;4387098;32;33865;-80
2023/07/09 09:09:58;;;;;;;5.53;2.78;;;;;;;31.56;27.05;99640.06;4390954;32;35418;-91
2023/07/09 09:12:30;;;;;;;5.93;2.70;;;;;;;31.36;26.73;99636.00;4389727;32;34825;-88
2023/07/09 09:14:59;;;;;;;6.75;3.15;;;;;;;31.14;28.34;99644.56;4401921;32;34199;-81
2023/07/09 09:17:29;;;;;;;5.95;2.67;;;;;;;31.06;27.69;99635.28;4401775;32;33992;-81
2023/07/09 09:20:18;;;;;;;5.50;2.75;;;;;;;31.33;28.33;99646.94;4387802;32;34086;-81
2023/07/09 09:22:51;;;;;;;6.10;2.92;;;;;;;31.09;27.38;99635.09;4373546;32;33880;-90
2023/07/09 09:25:29;;;;;;;6.47;3.17;;;;;;;31.70;28.08;99641.81;4390126;32;33313;-89
2023/07/09 09:28:00;;;;;;;7.32;2.65;;;;;;;31.85;25.19;99645.28;4391687;32;33775;-87
2023/07/09 09:30:30;;;;;;;5.72;2.70;;;;;;;31.48;26.56;99637.91;4385611;32;33656;-90
2023/07/09 09:33:07;;;;;;;5.85;2.65;;;;;;;31.29;28.17;99640.00;4370190;32;35963;-90
2023/07/09 09:35:41;;;;;;;5.75;2.70;;;;;;;31.60;27.05;99632.69;4375408;32;33423;-89
2023/07/09 09:38:27;;;;;;;6.05;2.85;;;;;;;31.80;26.78;99644.75;4364034;32;33360;-80
2023/07/09 09:41:00;;;;;;;6.37;2.67;;;;;;;31.97;27.00;99634.63;4386950;32;34357;-92
2023/07/09 09:43:32;;;;;;;6.12;3.00;;;;;;;31.70;27.81;99648.03;4385486;32;33977;-80
2023/07/09 09:46:01;;;;;;;6.20;2.85;;;;;;;31.48;26.20;99642.37;4383536;32;33003;-84
2023/07/09 09:48:31;;;;;;;6.37;3.17;;;;;;;31.83;27.09;99642.72;4378222;32;32605;-80
2023/07/09 09:51:01;;;;;;;4.45;2.25;;;;;;;31.22;26.08;99644.94;4388817;32;33742;-81
2023/07/09 09:53:37;;;;;;;4.82;2.25;;;;;;;31.88;25.80;99637.06;4389065;32;33152;-81
2023/07/09 09:56:11;;;;;;;4.78;2.50;;;;;;;32.05;25.60;99641.25;4388960;32;33444;-83
2023/07/09 09:58:42;;;;;;;7.22;2.80;;;;;;;31.42;26.51;99635.63;4364140;32;33451;-82
2023/07/09 10:01:16;;;;;;;6.57;2.83;;;;;;;31.82;25.69;99635.59;4375022;32;34085;-81
2023/07/09 10:03:47;;;;;;;6.12;2.62;;;;;;;32.07;25.24;99634.84;4373976;32;33958;-92
2023/07/09 10:06:39;;;;;;;4.78;2.30;;;;;;;31.95;24.70;99633.00;4349556;32;32985;-83
2023/07/09 10:09:23;;;;;;;6.47;2.90;;;;;;;31.49;25.31;99626.22;4401273;32;33984;-85
2023/07/09 10:12:02;;;;;;;9.05;2.78;;;;;;;31.53;27.71;99631.38;4390529;32;34095;-88
2023/07/09 10:14:48;;;;;;;4.90;2.40;;;;;;;32.00;27.00;99630.00;4391089;32;33611;-88
2023/07/09 10:17:24;;;;;;;;;;;;;;;32.12;25.69;99630.00;4390047;32;34451;-81
2023/07/09 10:20:15;;;;;;;5.07;2.30;;;;;;;32.07;25.86;99621.44;4390057;32;34100;-82
2023/07/09 10:22:54;;;;;;;6.22;2.50;;;;;;;32.26;25.42;99618.34;4389509;32;34975;-84
2023/07/09 10:25:44;;;;;;;6.43;2.37;;;;;;;32.13;24.98;99620.16;4395073;32;33932;-82
2023/07/09 10:28:24;;;;;;;5.75;2.83;;;;;;;32.27;26.68;99620.03;4388178;32;32627;-83
2023/07/09 10:31:00;;;;;;;7.37;2.65;;;;;;;32.35;26.06;99619.50;4388086;32;33784;-85
2023/07/09 10:33:52;;;;;;;6.10;2.50;;;;;;;32.05;26.73;99630.53;4389184;32;34978;-83
2023/07/09 10:36:38;;;;;;;5.00;3.08;;;;;;;31.70;27.61;99628.41;4381493;32;33764;-84
2023/07/09 10:39:06;;;;;;;;;;;;;;;32.48;24.91;99625.78;4386920;32;34401;-88
2023/07/09 10:41:37;;;;;;;5.22;2.65;;;;;;;32.06;28.94;99629.59;4389958;32;34343;-93
2023/07/09 10:44:21;;;;;;;7.72;2.62;;;;;;;32.02;25.15;99633.47;4386317;32;33749;-91
2023/07/09 10:46:53;;;;;;;5.25;2.70;;;;;;;31.89;28.05;99628.91;4376113;32;33910;-88
2023/07/09 10:49:22;;;;;;;6.45;3.00;;;;;;;32.08;26.51;99624.97;4390178;32;33109;-94
2023/07/09 10:51:56;;;;;;;6.07;2.78;;;;;;;31.76;25.76;99619.09;4384532;32;174901;-90
2023/07/09 10:54:33;;;;;;;6.33;2.07;;;;;;;32.26;24.85;99615.66;4378441;32;34271;-83
2023/07/09 10:57:11;;;;;;;5.65;2.75;;;;;;;32.17;26.04;99616.31;4388283;32;33670;-87
2023/07/09 10:59:40;;;;;;;6.85;2.67;;;;;;;32.27;24.68;99611.13;4391255;32;33563;-93
2023/07/09 11:02:22;;;;;;;6.35;2.78;;;;;;;32.52;24.52;99619.22;4389635;32;33557;-83
2023/07/09 11:04:55;;;;;;;7.15;2.90;;;;;;;32.80;23.41;99615.41;4388888;32;33819;-85
2023/07/09 11:07:29;;;;;;;5.55;3.30;;;;;;;32.82;23.39;99608.09;4395947;32;32446;-93
2023/07/09 11:09:58;;;;;;;6.03;2.90;;;;;;;32.58;25.19;99612.53;4418361;32;33220;-89
2023/07/09 11:12:39;;;;;;;5.28;2.80;;;;;;;32.39;27.07;99616.53;4394842;32;34781;-85
2023/07/09 11:15:14;;;;;;;8.35;3.03;;;;;;;32.78;27.16;99601.25;4389928;32;34367;-84
2023/07/09 11:17:46;;;;;;;6.60;3.05;;;;;;;32.54;26.18;99608.34;4396738;32;33594;-90
2023/07/09 11:20:35;;;;;;;5.32;2.67;;;;;;;31.97;27.30;99610.50;4391841;32;32834;-86
2023/07/09 11:23:06;;;;;;;7.12;3.00;;;;;;;32.16;27.20;99604.72;4388250;32;33305;-84
2023/07/09 11:25:45;;;;;;;9.23;2.90;;;;;;;31.90;28.16;99609.19;4390102;32;33961;-86
2023/07/09 11:28:13;;;;;;;5.82;3.10;;;;;;;32.11;28.50;99611.34;4391408;32;35060;-84
2023/07/09 11:30:48;;;;;;;4.95;2.47;;;;;;;32.13;28.97;99614.81;4390296;32;33068;-84
2023/07/09 11:33:29;;;;;;;5.05;2.92;;;;;;;31.44;27.74;99601.56;4388652;32;33484;-84
2023/07/09 11:36:08;;;;;;;5.53;2.90;;;;;;;32.21;27.99;99602.56;4392911;32;33778;-94
2023/07/09 11:38:46;;;;;;;5.25;2.80;;;;;;;32.25;26.06;99592.47;4390884;32;35201;-91
2023/07/09 11:41:25;;;;;;;4.53;2.45;;;;;;;32.53;26.46;99601.28;4392307;32;32179;-92
2023/07/09 11:44:03;;;;;;;7.75;2.90;;;;;;;32.45;23.83;99602.69;4394061;32;34063;-93
2023/07/09 11:46:31;;;;;;;6.20;3.03;;;;;;;32.39;24.90;99597.72;4391004;32;33713;-91
2023/07/09 11:49:01;;;;;;;9.77;2.75;;;;;;;32.37;25.55;99594.28;4404448;32;34283;-90
2023/07/09 11:51:40;;;;;;;6.18;3.30;;;;;;;31.84;24.78;99590.81;4384504;32;31853;-85